createdAt,value
2017-06-25T00:01:02.284Z,16.90
2017-06-25T00:03:28.324Z,16.90
2017-06-25T00:05:54.385Z,16.90
2017-06-25T00:08:20.429Z,16.90
2017-06-25T00:10:46.464Z,17.00
2017-06-25T00:13:12.493Z,17.00
2017-06-25T00:15:38.547Z,17.00
2017-06-25T00:18:04.592Z,17.10
2017-06-25T00:20:31.365Z,17.00
2017-06-25T00:22:57.425Z,16.90
2017-06-25T00:25:23.464Z,17.00
2017-06-25T00:27:49.526Z,16.90
2017-06-25T00:30:15.580Z,16.80
2017-06-25T00:32:41.621Z,16.70
2017-06-25T00:35:07.685Z,16.70
2017-06-25T00:37:33.734Z,16.60
2017-06-25T00:39:59.769Z,16.60
2017-06-25T00:42:25.805Z,16.70
2017-06-25T00:44:51.853Z,16.60
2017-06-25T00:47:17.889Z,16.70
2017-06-25T00:49:43.908Z,16.60
2017-06-25T00:52:09.937Z,16.60
2017-06-25T00:54:36.721Z,16.60
2017-06-25T00:57:02.762Z,16.70
2017-06-25T00:59:28.825Z,16.70
2017-06-25T01:01:54.860Z,16.70
2017-06-25T01:04:20.885Z,16.70
2017-06-25T01:06:46.909Z,16.70
2017-06-25T01:09:13.677Z,16.70
2017-06-25T01:11:39.728Z,16.70
2017-06-25T01:14:05.781Z,16.70
2017-06-25T01:16:31.845Z,16.70
2017-06-25T01:18:57.880Z,16.70
2017-06-25T01:21:23.917Z,16.70
2017-06-25T01:23:49.940Z,16.70
2017-06-25T01:26:15.993Z,16.80
2017-06-25T01:28:42.785Z,16.80
2017-06-25T01:31:08.834Z,16.80
2017-06-25T01:33:35.648Z,16.80
2017-06-25T01:36:02.453Z,16.90
2017-06-25T01:38:28.565Z,16.80
2017-06-25T01:40:54.594Z,16.90
2017-06-25T01:43:20.643Z,16.80
2017-06-25T01:45:46.684Z,16.80
2017-06-25T01:48:12.720Z,16.80
2017-06-25T01:50:39.509Z,16.90
2017-06-25T01:53:05.545Z,16.90
2017-06-25T01:55:31.577Z,16.90
2017-06-25T01:57:57.650Z,16.90
2017-06-25T02:00:23.681Z,16.90
2017-06-25T02:02:50.449Z,16.90
2017-06-25T02:05:16.488Z,16.90
2017-06-25T02:07:42.512Z,17.00
2017-06-25T02:10:08.550Z,17.00
2017-06-25T02:12:35.350Z,17.10
2017-06-25T02:15:01.395Z,17.10
2017-06-25T02:17:27.425Z,17.10
2017-06-25T02:19:53.471Z,17.10
2017-06-25T02:22:19.497Z,17.00
2017-06-25T02:24:46.287Z,17.00
2017-06-25T02:27:12.317Z,17.00
2017-06-25T02:29:38.351Z,17.00
2017-06-25T02:32:05.132Z,17.00
2017-06-25T02:34:31.153Z,17.00
2017-06-25T02:36:57.212Z,17.00
2017-06-25T02:39:23.239Z,17.00
2017-06-25T02:41:49.287Z,17.00
2017-06-25T02:44:15.316Z,17.00
2017-06-25T02:46:41.335Z,16.90
2017-06-25T02:49:07.393Z,16.90
2017-06-25T02:51:33.456Z,16.90
2017-06-25T02:53:59.488Z,16.90
2017-06-25T02:56:25.530Z,16.90
2017-06-25T02:58:51.560Z,16.90
2017-06-25T03:01:18.324Z,16.90
2017-06-25T03:03:44.386Z,16.90
2017-06-25T03:06:11.168Z,17.00
2017-06-25T03:08:37.209Z,17.00
2017-06-25T03:11:03.253Z,17.00
2017-06-25T03:13:29.301Z,17.00
2017-06-25T03:15:55.328Z,17.10
2017-06-25T03:18:21.365Z,17.10
2017-06-25T03:20:48.212Z,17.10
2017-06-25T03:23:14.220Z,17.10
2017-06-25T03:25:40.284Z,17.10
2017-06-25T03:28:06.332Z,17.10
2017-06-25T03:30:33.113Z,17.20
2017-06-25T03:32:59.152Z,17.10
2017-06-25T03:35:25.177Z,17.10
2017-06-25T03:37:51.204Z,17.10
2017-06-25T03:40:17.221Z,17.10
2017-06-25T03:42:43.249Z,17.10
2017-06-25T03:45:09.288Z,17.10
2017-06-25T03:47:42.221Z,17.10
2017-06-25T03:50:08.245Z,17.10
2017-06-25T03:52:34.305Z,17.10
2017-06-25T03:55:00.325Z,17.10
2017-06-25T03:57:26.341Z,17.10
2017-06-25T03:59:52.383Z,17.10
2017-06-25T04:02:18.445Z,17.10
2017-06-25T04:04:44.500Z,17.10
2017-06-25T04:07:10.531Z,17.10
2017-06-25T04:09:36.584Z,17.10
2017-06-25T04:12:02.613Z,17.10
2017-06-25T04:14:28.683Z,17.20
2017-06-25T04:16:55.443Z,17.20
2017-06-25T04:19:21.500Z,17.20
2017-06-25T04:21:48.286Z,17.30
2017-06-25T04:24:14.316Z,17.20
2017-06-25T04:26:40.357Z,17.20
2017-06-25T04:29:06.401Z,17.20
2017-06-25T04:31:32.448Z,17.10
2017-06-25T04:33:59.229Z,17.00
2017-06-25T04:36:25.280Z,17.00
2017-06-25T04:38:51.304Z,17.10
2017-06-25T04:41:18.103Z,17.00
2017-06-25T04:43:44.165Z,16.90
2017-06-25T04:46:10.201Z,16.90
2017-06-25T04:48:36.234Z,16.90
2017-06-25T04:51:02.256Z,16.90
2017-06-25T04:53:28.304Z,16.90
2017-06-25T04:55:54.329Z,16.90
2017-06-25T04:58:20.430Z,16.90
2017-06-25T05:00:46.465Z,16.90
2017-06-25T05:03:12.492Z,16.90
2017-06-25T05:05:38.526Z,16.80
2017-06-25T05:08:05.304Z,16.70
2017-06-25T05:10:31.339Z,16.70
2017-06-25T05:12:57.352Z,16.70
2017-06-25T05:15:23.397Z,16.60
2017-06-25T05:17:49.485Z,16.40
2017-06-25T05:20:15.523Z,16.40
2017-06-25T05:22:41.556Z,16.20
2017-06-25T05:25:07.604Z,16.00
2017-06-25T05:27:33.626Z,15.90
2017-06-25T05:29:59.633Z,15.80
2017-06-25T05:32:26.404Z,15.90
2017-06-25T05:34:52.441Z,15.90
2017-06-25T05:37:18.499Z,15.90
2017-06-25T05:39:44.541Z,15.90
2017-06-25T05:42:10.594Z,15.80
2017-06-25T05:44:36.686Z,15.70
2017-06-25T05:47:02.745Z,15.80
2017-06-25T05:49:28.781Z,15.80
2017-06-25T05:51:54.823Z,15.70
2017-06-25T05:54:21.651Z,15.60
2017-06-25T05:56:48.432Z,15.50
2017-06-25T05:59:14.508Z,15.50
2017-06-25T06:01:40.532Z,15.50
2017-06-25T06:04:06.556Z,15.50
2017-06-25T06:06:32.597Z,15.40
2017-06-25T06:08:58.632Z,15.40
2017-06-25T06:11:25.400Z,15.40
2017-06-25T06:13:51.420Z,15.40
2017-06-25T06:16:17.501Z,15.40
2017-06-25T06:18:43.551Z,15.40
2017-06-25T06:21:09.578Z,15.50
2017-06-25T06:23:36.445Z,15.60
2017-06-25T06:26:02.481Z,15.70
2017-06-25T06:28:28.502Z,15.70
2017-06-25T06:30:54.549Z,15.80
2017-06-25T06:33:20.592Z,15.90
2017-06-25T06:35:46.601Z,16.00
2017-06-25T06:38:12.630Z,16.00
2017-06-25T06:40:38.644Z,16.10
2017-06-25T06:43:04.717Z,16.20
2017-06-25T06:45:30.752Z,16.20
2017-06-25T06:47:56.781Z,16.20
2017-06-25T06:50:22.847Z,16.20
2017-06-25T06:52:48.885Z,16.20
2017-06-25T06:55:14.944Z,16.30
2017-06-25T06:57:41.001Z,16.40
2017-06-25T07:00:07.030Z,16.40
2017-06-25T07:02:33.832Z,16.40
2017-06-25T07:04:59.878Z,16.40
2017-06-25T07:07:26.648Z,16.50
2017-06-25T07:09:52.752Z,16.50
2017-06-25T07:12:18.793Z,16.60
2017-06-25T07:14:44.825Z,16.70
2017-06-25T07:17:10.889Z,16.70
2017-06-25T07:19:36.921Z,16.80
2017-06-25T07:22:02.976Z,16.90
2017-06-25T07:24:29.013Z,17.00
2017-06-25T07:26:55.105Z,17.10
2017-06-25T07:29:21.148Z,17.20
2017-06-25T07:31:47.184Z,17.10
2017-06-25T07:34:13.997Z,17.10
2017-06-25T07:36:40.794Z,17.10
2017-06-25T07:39:06.849Z,17.10
2017-06-25T07:41:33.617Z,17.20
2017-06-25T07:43:59.677Z,17.20
2017-06-25T07:46:25.725Z,17.30
2017-06-25T07:48:51.760Z,17.40
2017-06-25T07:51:17.816Z,17.60
2017-06-25T07:53:43.888Z,17.60
2017-06-25T07:56:09.899Z,17.70
2017-06-25T07:58:35.925Z,17.90
2017-06-25T08:01:01.958Z,17.90
2017-06-25T08:03:28.019Z,17.90
2017-06-25T08:05:54.078Z,18.00
2017-06-25T08:08:20.840Z,18.10
2017-06-25T08:10:46.896Z,18.00
2017-06-25T08:13:13.668Z,18.20
2017-06-25T08:15:39.705Z,18.20
2017-06-25T08:18:05.750Z,18.10
2017-06-25T08:20:32.552Z,18.20
2017-06-25T08:22:58.665Z,18.20
2017-06-25T08:25:24.717Z,18.20
2017-06-25T08:27:50.742Z,18.20
2017-06-25T08:30:16.784Z,18.30
2017-06-25T08:32:42.816Z,18.30
2017-06-25T08:35:09.596Z,18.40
2017-06-25T08:37:35.689Z,18.40
2017-06-25T08:40:01.748Z,18.60
2017-06-25T08:42:27.789Z,18.60
2017-06-25T08:44:53.838Z,18.60
2017-06-25T08:47:19.861Z,18.70
2017-06-25T08:49:52.856Z,18.80
2017-06-25T08:52:19.620Z,18.90
2017-06-25T08:54:45.653Z,18.90
2017-06-25T08:57:11.709Z,19.00
2017-06-25T08:59:37.745Z,19.00
2017-06-25T09:02:03.763Z,19.20
2017-06-25T09:04:29.828Z,19.40
2017-06-25T09:06:56.625Z,19.50
2017-06-25T09:09:22.660Z,19.50
2017-06-25T09:11:49.486Z,19.30
2017-06-25T09:14:15.627Z,19.30
2017-06-25T09:16:41.725Z,19.40
2017-06-25T09:19:07.830Z,19.20
2017-06-25T09:21:33.901Z,19.30
2017-06-25T09:23:59.945Z,19.20
2017-06-25T09:26:25.984Z,19.10
2017-06-25T09:28:52.040Z,19.00
2017-06-25T09:31:18.068Z,18.70
2017-06-25T09:33:44.845Z,18.50
2017-06-25T09:36:10.916Z,18.40
2017-06-25T09:38:36.950Z,18.40
2017-06-25T09:41:02.973Z,18.30
2017-06-25T09:43:29.040Z,18.20
2017-06-25T09:45:55.105Z,18.20
2017-06-25T09:48:21.141Z,18.20
2017-06-25T09:50:47.946Z,18.00
2017-06-25T09:53:13.977Z,18.00
2017-06-25T09:55:40.046Z,18.00
2017-06-25T09:58:06.085Z,18.00
2017-06-25T10:00:32.117Z,17.90
2017-06-25T10:02:58.217Z,17.90
2017-06-25T10:05:25.015Z,17.90
2017-06-25T10:07:51.075Z,17.90
2017-06-25T10:10:17.144Z,18.00
2017-06-25T10:12:43.196Z,18.00
2017-06-25T10:15:09.264Z,17.90
2017-06-25T10:17:36.075Z,17.80
2017-06-25T10:20:02.146Z,17.80
2017-06-25T10:22:28.173Z,17.80
2017-06-25T10:24:54.221Z,17.80
2017-06-25T10:27:20.244Z,17.90
2017-06-25T10:29:47.030Z,18.20
2017-06-25T10:32:13.080Z,18.20
2017-06-25T10:34:39.844Z,18.10
2017-06-25T10:37:05.897Z,18.00
2017-06-25T10:39:31.964Z,18.00
2017-06-25T10:41:58.077Z,18.10
2017-06-25T10:44:24.120Z,18.20
2017-06-25T10:46:50.185Z,18.20
2017-06-25T10:49:16.244Z,18.20
2017-06-25T10:51:42.283Z,18.20
2017-06-25T10:54:08.325Z,18.30
2017-06-25T10:56:34.393Z,18.30
2017-06-25T10:59:01.181Z,18.50
2017-06-25T11:01:27.213Z,18.50
2017-06-25T11:03:53.996Z,19.10
2017-06-25T11:06:20.076Z,19.00
2017-06-25T11:08:46.113Z,19.00
2017-06-25T11:11:12.149Z,19.10
2017-06-25T11:13:38.204Z,19.40
2017-06-25T11:16:04.254Z,19.50
2017-06-25T11:18:30.292Z,19.60
2017-06-25T11:20:56.369Z,19.70
2017-06-25T11:23:22.431Z,19.70
2017-06-25T11:25:48.480Z,19.70
2017-06-25T11:28:14.559Z,19.60
2017-06-25T11:30:40.575Z,19.40
2017-06-25T11:33:06.599Z,19.20
2017-06-25T11:35:32.625Z,19.00
2017-06-25T11:37:58.700Z,18.90
2017-06-25T11:40:24.725Z,18.90
2017-06-25T11:42:50.789Z,19.00
2017-06-25T11:45:17.612Z,18.90
2017-06-25T11:47:44.424Z,18.80
2017-06-25T11:50:10.486Z,18.80
2017-06-25T11:52:36.528Z,18.80
2017-06-25T11:55:09.438Z,18.90
2017-06-25T11:57:36.248Z,19.00
2017-06-25T12:00:03.037Z,18.90
2017-06-25T12:02:29.104Z,18.90
2017-06-25T12:04:55.916Z,18.80
2017-06-25T12:07:22.725Z,19.00
2017-06-25T12:09:48.772Z,19.00
2017-06-25T12:12:14.813Z,19.20
2017-06-25T12:14:40.917Z,19.50
2017-06-25T12:17:07.001Z,20.30
2017-06-25T12:19:33.054Z,21.50
2017-06-25T12:21:59.169Z,22.20
2017-06-25T12:24:25.264Z,22.00
2017-06-25T12:26:51.314Z,21.70
2017-06-25T12:29:17.402Z,21.50
2017-06-25T12:31:43.474Z,21.30
2017-06-25T12:34:09.545Z,21.30
2017-06-25T12:36:36.375Z,21.00
2017-06-25T12:39:02.441Z,21.00
2017-06-25T12:41:28.481Z,20.70
2017-06-25T12:43:54.529Z,21.10
2017-06-25T12:46:20.556Z,21.60
2017-06-25T12:48:46.655Z,22.20
2017-06-25T12:51:12.693Z,23.10
2017-06-25T12:53:38.769Z,23.50
2017-06-25T12:56:04.804Z,23.90
2017-06-25T12:58:30.840Z,23.70
2017-06-25T13:00:56.880Z,23.40
2017-06-25T13:03:22.909Z,23.10
2017-06-25T13:05:48.985Z,22.80
2017-06-25T13:08:15.072Z,22.70
2017-06-25T13:10:41.129Z,23.10
2017-06-25T13:13:07.179Z,23.60
2017-06-25T13:15:33.228Z,24.00
2017-06-25T13:17:59.268Z,24.10
2017-06-25T13:20:25.317Z,24.30
2017-06-25T13:22:51.358Z,24.90
2017-06-25T13:25:18.120Z,26.60
2017-06-25T13:27:44.152Z,26.60
2017-06-25T13:30:10.199Z,27.10
2017-06-25T13:32:36.269Z,26.60
2017-06-25T13:35:03.072Z,25.60
2017-06-25T13:37:29.112Z,25.50
2017-06-25T13:39:55.165Z,25.10
2017-06-25T13:42:21.218Z,24.30
2017-06-25T13:44:47.283Z,23.80
2017-06-25T13:47:13.353Z,23.50
2017-06-25T13:49:39.414Z,23.30
2017-06-25T13:52:05.460Z,23.30
2017-06-25T13:54:31.492Z,23.10
2017-06-25T13:56:57.521Z,23.10
2017-06-25T13:59:23.569Z,23.00
2017-06-25T14:01:49.597Z,22.90
2017-06-25T14:04:15.648Z,22.60
2017-06-25T14:06:41.693Z,22.20
2017-06-25T14:09:07.731Z,21.90
2017-06-25T14:11:33.770Z,21.50
2017-06-25T14:13:59.789Z,21.30
2017-06-25T14:16:25.870Z,21.00
2017-06-25T14:18:52.682Z,20.60
2017-06-25T14:21:18.722Z,20.60
2017-06-25T14:23:45.530Z,20.30
2017-06-25T14:26:11.561Z,20.30
2017-06-25T14:28:38.613Z,20.20
2017-06-25T14:31:04.668Z,20.10
2017-06-25T14:33:30.704Z,20.10
2017-06-25T14:35:57.501Z,19.90
2017-06-25T14:38:23.536Z,19.90
2017-06-25T14:40:50.324Z,19.80
2017-06-25T14:43:16.377Z,19.80
2017-06-25T14:45:42.417Z,19.70
2017-06-25T14:48:08.464Z,19.60
2017-06-25T14:50:34.509Z,19.70
2017-06-25T14:53:00.557Z,19.60
2017-06-25T14:55:26.617Z,19.60
2017-06-25T14:57:53.428Z,19.40
2017-06-25T15:00:19.502Z,19.30
2017-06-25T15:02:45.648Z,19.40
2017-06-25T15:05:11.737Z,19.30
2017-06-25T15:07:37.768Z,19.20
2017-06-25T15:10:03.802Z,19.20
2017-06-25T15:12:29.868Z,19.30
2017-06-25T15:14:55.917Z,19.20
2017-06-25T15:17:21.957Z,19.30
2017-06-25T15:19:47.992Z,19.20
2017-06-25T15:22:14.074Z,19.30
2017-06-25T15:24:40.104Z,19.30
2017-06-25T15:27:06.149Z,19.20
2017-06-25T15:29:32.917Z,19.00
2017-06-25T15:31:59.380Z,18.90
2017-06-25T15:34:25.403Z,18.90
2017-06-25T15:36:52.196Z,18.60
2017-06-25T15:39:18.237Z,18.60
2017-06-25T15:41:45.006Z,18.50
2017-06-25T15:44:11.052Z,18.40
2017-06-25T15:46:37.080Z,18.40
2017-06-25T15:49:03.880Z,18.30
2017-06-25T15:51:29.940Z,18.30
2017-06-25T15:53:56.412Z,18.30
2017-06-25T15:56:22.497Z,18.40
2017-06-25T15:58:48.562Z,18.30
2017-06-25T16:01:15.342Z,18.20
2017-06-25T16:03:41.380Z,18.20
2017-06-25T16:06:07.409Z,18.30
2017-06-25T16:08:34.205Z,18.20
2017-06-25T16:11:00.240Z,18.20
2017-06-25T16:13:27.052Z,18.30
2017-06-25T16:15:53.075Z,18.30
2017-06-25T16:18:19.856Z,18.30
2017-06-25T16:20:45.905Z,18.30
2017-06-25T16:23:12.653Z,18.20
2017-06-25T16:25:38.680Z,18.20
2017-06-25T16:28:04.720Z,18.10
2017-06-25T16:30:30.760Z,18.10
2017-06-25T16:32:57.537Z,18.00
2017-06-25T16:35:23.574Z,18.00
2017-06-25T16:37:49.616Z,18.00
2017-06-25T16:40:15.677Z,17.90
2017-06-25T16:42:41.701Z,17.90
2017-06-25T16:45:07.737Z,17.80
2017-06-25T16:47:34.599Z,17.40
2017-06-25T16:50:00.641Z,17.40
2017-06-25T16:52:28.196Z,17.30
2017-06-25T16:54:54.976Z,17.40
2017-06-25T16:57:21.040Z,17.40
2017-06-25T16:59:47.805Z,17.40
2017-06-25T17:02:13.894Z,17.30
2017-06-25T17:04:39.941Z,17.30
2017-06-25T17:07:06.029Z,17.20
2017-06-25T17:09:32.071Z,17.20
2017-06-25T17:11:58.117Z,17.30
2017-06-25T17:14:24.898Z,17.40
2017-06-25T17:16:50.925Z,17.40
2017-06-25T17:19:16.952Z,17.40
2017-06-25T17:21:43.733Z,17.20
2017-06-25T17:24:09.801Z,17.20
2017-06-25T17:26:36.584Z,17.30
2017-06-25T17:29:02.644Z,17.20
2017-06-25T17:31:28.678Z,17.20
2017-06-25T17:33:54.761Z,17.20
2017-06-25T17:36:20.809Z,17.20
2017-06-25T17:38:47.908Z,17.10
2017-06-25T17:41:13.964Z,17.10
2017-06-25T17:43:40.769Z,17.10
2017-06-25T17:46:08.305Z,17.00
2017-06-25T17:48:34.350Z,16.90
2017-06-25T17:51:00.402Z,16.90
2017-06-25T17:53:26.425Z,16.90
2017-06-25T17:55:52.493Z,16.90
2017-06-25T17:58:19.272Z,16.90
2017-06-25T18:00:45.304Z,16.90
2017-06-25T18:03:18.304Z,17.00
2017-06-25T18:05:44.343Z,17.00
2017-06-25T18:08:10.400Z,17.10
2017-06-25T18:10:36.464Z,17.10
2017-06-25T18:13:02.528Z,17.10
2017-06-25T18:15:28.545Z,17.10
2017-06-25T18:17:55.316Z,17.00
2017-06-25T18:20:21.360Z,17.00
2017-06-25T18:22:47.408Z,17.00
2017-06-25T18:25:13.454Z,17.00
2017-06-25T18:27:39.488Z,16.90
2017-06-25T18:30:05.509Z,16.80
2017-06-25T18:32:31.548Z,16.70
2017-06-25T18:34:57.573Z,16.60
2017-06-25T18:37:23.632Z,16.60
2017-06-25T18:39:49.692Z,16.50
2017-06-25T18:42:15.713Z,16.50
2017-06-25T18:44:41.737Z,16.40
2017-06-25T18:47:07.761Z,16.30
2017-06-25T18:49:33.798Z,16.30
2017-06-25T18:52:00.609Z,16.30
2017-06-25T18:54:26.698Z,16.30
2017-06-25T18:56:53.492Z,16.00
2017-06-25T18:59:19.517Z,16.00
2017-06-25T19:01:45.567Z,16.00
2017-06-25T19:04:11.597Z,16.00
2017-06-25T19:06:37.672Z,15.90
2017-06-25T19:09:03.705Z,16.00
2017-06-25T19:11:30.473Z,16.00
2017-06-25T19:13:56.503Z,16.00
2017-06-25T19:16:22.569Z,16.10
2017-06-25T19:18:48.624Z,16.00
2017-06-25T19:21:14.665Z,16.00
2017-06-25T19:23:41.444Z,15.90
2017-06-25T19:26:07.473Z,15.90
2017-06-25T19:28:33.572Z,15.90
2017-06-25T19:30:59.958Z,15.90
2017-06-25T19:33:26.006Z,15.80
2017-06-25T19:35:52.029Z,15.80
2017-06-25T19:38:18.085Z,15.80
2017-06-25T19:40:44.121Z,15.70
2017-06-25T19:43:10.176Z,15.70
2017-06-25T19:45:36.237Z,15.60
2017-06-25T19:48:02.284Z,15.60
2017-06-25T19:50:29.060Z,15.60
2017-06-25T19:52:55.093Z,15.60
2017-06-25T19:55:21.137Z,15.50
2017-06-25T19:57:47.207Z,15.50
2017-06-25T20:00:13.269Z,15.40
2017-06-25T20:02:39.329Z,15.40
2017-06-25T20:05:05.392Z,15.40
2017-06-25T20:07:31.419Z,15.40
2017-06-25T20:09:57.555Z,15.50
2017-06-25T20:12:23.585Z,15.50
2017-06-25T20:14:50.392Z,15.50
2017-06-25T20:17:16.440Z,15.50
2017-06-25T20:19:42.481Z,15.40
2017-06-25T20:22:08.513Z,15.50
2017-06-25T20:24:34.553Z,15.50
2017-06-25T20:27:01.326Z,15.50
2017-06-25T20:29:27.367Z,15.50
2017-06-25T20:31:53.406Z,15.40
2017-06-25T20:34:19.489Z,15.40
2017-06-25T20:36:46.309Z,15.30
2017-06-25T20:39:12.349Z,15.30
2017-06-25T20:41:39.131Z,15.30
2017-06-25T20:44:06.669Z,15.30
2017-06-25T20:46:32.711Z,15.30
2017-06-25T20:48:58.735Z,15.30
2017-06-25T20:51:24.754Z,15.30
2017-06-25T20:53:50.781Z,15.40
2017-06-25T20:56:16.829Z,15.40
2017-06-25T20:58:42.848Z,15.40
2017-06-25T21:01:08.877Z,15.40
2017-06-25T21:03:35.641Z,15.30
2017-06-25T21:06:01.685Z,15.30
2017-06-25T21:08:27.716Z,15.30
2017-06-25T21:10:53.725Z,15.30
2017-06-25T21:13:19.740Z,15.30
2017-06-25T21:15:46.506Z,15.30
2017-06-25T21:18:12.553Z,15.20
2017-06-25T21:20:38.597Z,15.30
2017-06-25T21:23:04.637Z,15.20
2017-06-25T21:25:30.660Z,15.10
2017-06-25T21:27:56.717Z,15.10
2017-06-25T21:30:29.809Z,15.10
2017-06-25T21:32:55.829Z,15.10
2017-06-25T21:35:21.852Z,15.10
2017-06-25T21:37:47.904Z,15.20
2017-06-25T21:40:14.698Z,15.20
2017-06-25T21:42:40.752Z,15.20
2017-06-25T21:45:06.792Z,15.20
2017-06-25T21:47:32.862Z,15.10
2017-06-25T21:49:58.982Z,15.00
2017-06-25T21:52:25.037Z,15.00
2017-06-25T21:54:51.066Z,15.00
2017-06-25T21:57:17.129Z,14.90
2017-06-25T21:59:43.158Z,14.90
2017-06-25T22:02:09.213Z,14.90
2017-06-25T22:04:36.004Z,14.90
2017-06-25T22:07:02.033Z,14.90
2017-06-25T22:09:28.812Z,14.80
2017-06-25T22:11:54.848Z,14.80
2017-06-25T22:14:20.872Z,14.80
2017-06-25T22:16:46.927Z,14.80
2017-06-25T22:19:12.977Z,14.80
2017-06-25T22:21:39.026Z,14.90
2017-06-25T22:24:05.053Z,14.90
2017-06-25T22:26:31.077Z,14.90
2017-06-25T22:28:57.113Z,15.00
2017-06-25T22:31:23.171Z,15.00
2017-06-25T22:33:49.211Z,15.00
2017-06-25T22:36:15.249Z,14.90
2017-06-25T22:38:41.296Z,14.90
2017-06-25T22:41:07.321Z,15.00
2017-06-25T22:46:06.217Z,15.00
2017-06-25T22:48:32.305Z,15.00
2017-06-25T22:50:58.411Z,14.90
2017-06-25T22:53:24.452Z,14.90
2017-06-25T22:55:50.502Z,14.90
2017-06-25T22:58:16.562Z,14.90
2017-06-25T23:00:42.720Z,15.00
2017-06-25T23:03:08.805Z,15.10
2017-06-25T23:05:35.630Z,15.10
2017-06-25T23:08:01.690Z,15.10
2017-06-25T23:10:27.749Z,15.10
2017-06-25T23:12:53.805Z,15.20
2017-06-25T23:15:19.829Z,15.10
2017-06-25T23:17:45.876Z,15.10
2017-06-25T23:20:11.898Z,15.10
2017-06-25T23:22:37.924Z,15.10
2017-06-25T23:25:04.681Z,15.10
2017-06-25T23:27:30.716Z,15.10
2017-06-25T23:29:56.750Z,15.10
2017-06-25T23:32:22.805Z,15.20
2017-06-25T23:34:48.857Z,15.10
2017-06-25T23:37:14.889Z,15.10
2017-06-25T23:39:41.656Z,15.00
2017-06-25T23:42:07.681Z,15.00
2017-06-25T23:44:33.721Z,15.00
2017-06-25T23:47:00.518Z,15.00
2017-06-25T23:49:26.559Z,15.00
2017-06-25T23:51:53.329Z,15.00
2017-06-25T23:54:19.373Z,15.00
2017-06-25T23:56:45.406Z,15.00
2017-06-25T23:59:11.445Z,15.00
